CYTZ/YTZ METAR and TAF weather

Enter ICAO airport designator
Station Type Date Time Source
CYTZ METAR 2021/05/14 07:00 UTC NOAA

CYTZ 140700Z AUTO 25005KT 9SM CLR 08/04 A3026 RMK SLP249


Station Type Date Time Source
CYTZ Decoded METAR 2021/05/14 07:00 UTC NOAA

Toronto Island Airport Automated Reporting Station, Canada (CYTZ) 43-38N 079-24W
May 14, 2021 - 03:00 AM EDT / 2021.05.14 0700 UTC
Wind: from the WSW (250 degrees) at 6 MPH (5 KT):0
Visibility: 9 mile(s):0
Sky conditions: clear
Temperature: 46 F (8 C)
Dew Point: 39 F (4 C)
Relative Humidity: 75%
Pressure (altimeter): 30.26 in. Hg (1024 hPa)
ob: CYTZ 140700Z AUTO 25005KT 9SM CLR 08/04 A3026 RMK SLP249
cycle: 7

Station Type Date Time Source
CYTZ TAF 2021/05/14 02:48 UTC NOAA

TAF CYTZ 140138Z 1402/1502 33006KT P6SM SKC
BECMG 1410/1412 29005KT
BECMG 1414/1416 20010KT
FM142000 20012KT P6SM SCT100
RMK FCST BASED ON AUTO OBS. NXT FCST BY 140800Z

Example: see airport list